createdAt,value
2019-02-27T00:01:21.284Z,62.78
2019-02-27T00:06:29.875Z,62.52
2019-02-27T00:11:45.973Z,61.86
2019-02-27T00:16:55.283Z,61.66
2019-02-27T00:22:03.783Z,62.02
2019-02-27T00:27:14.712Z,62.19
2019-02-27T00:32:21.379Z,62.68
2019-02-27T00:37:30.398Z,62.77
2019-02-27T00:42:38.731Z,63.67
2019-02-27T00:47:46.780Z,63.26
2019-02-27T00:53:02.138Z,63.61
2019-02-27T00:58:15.845Z,63.43
2019-02-27T01:03:25.940Z,63.64
2019-02-27T01:08:32.936Z,65.22
2019-02-27T01:13:41.187Z,63.85
2019-02-27T01:18:51.189Z,64.06
2019-02-27T01:24:01.320Z,64.14
2019-02-27T01:29:17.979Z,64.03
2019-02-27T01:34:28.746Z,65.37
2019-02-27T01:39:38.048Z,68.13
2019-02-27T01:44:49.724Z,68.69
2019-02-27T01:50:02.011Z,67.76
2019-02-27T01:55:12.163Z,69.58
2019-02-27T02:00:23.290Z,68.09
2019-02-27T02:05:34.917Z,69.21
2019-02-27T02:10:43.474Z,70.50
2019-02-27T02:16:19.852Z,68.35
2019-02-27T02:21:56.354Z,67.97
2019-02-27T02:27:23.171Z,68.40
2019-02-27T02:33:02.716Z,70.80
2019-02-27T02:39:00.295Z,70.80
2019-02-27T02:44:42.598Z,72.48
2019-02-27T02:50:18.482Z,71.09
2019-02-27T02:55:39.054Z,69.93
2019-02-27T03:01:15.181Z,69.51
2019-02-27T03:06:58.796Z,69.47
2019-02-27T03:12:41.747Z,69.59
2019-02-27T03:18:37.189Z,70.01
2019-02-27T03:24:36.308Z,70.26
2019-02-27T03:29:55.718Z,72.78
2019-02-27T03:35:42.837Z,70.40
2019-02-27T03:41:29.764Z,69.98
2019-02-27T03:47:08.009Z,70.05
2019-02-27T03:52:36.337Z,70.31
2019-02-27T03:58:07.442Z,70.45
2019-02-27T04:03:31.920Z,70.15
2019-02-27T04:08:58.469Z,70.50
2019-02-27T04:14:22.536Z,70.36
2019-02-27T04:19:40.373Z,70.59
2019-02-27T04:24:50.155Z,70.15
2019-02-27T04:30:00.181Z,70.20
2019-02-27T04:35:11.403Z,70.50
2019-02-27T04:40:23.090Z,70.49
2019-02-27T04:45:34.859Z,73.57
2019-02-27T04:50:44.182Z,71.66
2019-02-27T04:55:53.765Z,71.65
2019-02-27T05:01:04.549Z,71.89
2019-02-27T05:06:16.229Z,71.72
2019-02-27T05:11:23.646Z,72.06
2019-02-27T05:16:34.483Z,72.89
2019-02-27T05:21:44.615Z,72.89
2019-02-27T05:26:53.573Z,72.25
2019-02-27T05:32:05.124Z,72.35
2019-02-27T05:37:15.215Z,72.56
2019-02-27T05:42:27.843Z,72.70
2019-02-27T05:47:38.733Z,72.69
2019-02-27T05:52:48.783Z,72.56
2019-02-27T05:57:55.080Z,73.43
2019-02-27T06:03:05.831Z,73.01
2019-02-27T06:08:18.376Z,73.08
2019-02-27T06:13:28.327Z,73.13
2019-02-27T06:18:35.193Z,73.85
2019-02-27T06:23:46.855Z,75.48
2019-02-27T06:28:56.062Z,77.13
2019-02-27T06:34:15.292Z,76.05
2019-02-27T06:39:26.055Z,78.15
2019-02-27T06:44:39.318Z,77.27
2019-02-27T06:49:49.067Z,80.89
2019-02-27T06:54:56.995Z,79.64
2019-02-27T07:00:11.697Z,81.87
2019-02-27T07:05:25.233Z,81.59
2019-02-27T07:10:36.170Z,80.71
2019-02-27T07:15:48.273Z,78.53
2019-02-27T07:20:58.312Z,78.15
2019-02-27T07:26:07.492Z,77.42
2019-02-27T07:31:23.421Z,76.31
2019-02-27T07:36:35.959Z,75.32
2019-02-27T07:41:46.235Z,74.93
2019-02-27T07:46:58.792Z,74.72
2019-02-27T07:52:06.613Z,74.62
2019-02-27T07:57:18.346Z,74.54
2019-02-27T08:02:33.721Z,73.80
2019-02-27T08:07:40.594Z,73.60
2019-02-27T08:12:56.748Z,72.95
2019-02-27T08:18:10.510Z,72.56
2019-02-27T08:23:27.655Z,71.63
2019-02-27T08:28:35.427Z,70.96
2019-02-27T08:33:46.180Z,70.12
2019-02-27T08:38:57.068Z,69.89
2019-02-27T08:44:12.349Z,69.30
2019-02-27T08:49:24.968Z,68.67
2019-02-27T08:54:35.077Z,67.98
2019-02-27T08:59:43.520Z,67.46
2019-02-27T09:04:54.179Z,66.88
2019-02-27T09:10:05.480Z,66.03
2019-02-27T09:15:14.917Z,65.65
2019-02-27T09:20:26.638Z,64.89
2019-02-27T09:25:34.043Z,62.94
2019-02-27T09:30:43.947Z,62.75
2019-02-27T09:35:55.308Z,61.87
2019-02-27T09:41:05.070Z,61.96
2019-02-27T09:46:19.528Z,61.23
2019-02-27T09:51:30.527Z,60.79
2019-02-27T09:56:43.076Z,60.70
2019-02-27T10:01:52.915Z,58.63
2019-02-27T10:07:03.845Z,50.75
2019-02-27T10:12:10.737Z,46.81
2019-02-27T10:17:20.855Z,43.01
2019-02-27T10:22:33.485Z,38.63
2019-02-27T10:27:47.721Z,34.97
2019-02-27T10:32:57.610Z,32.20
2019-02-27T10:38:07.977Z,30.82
2019-02-27T10:43:22.395Z,28.98
2019-02-27T10:48:39.598Z,28.32
2019-02-27T10:53:53.231Z,28.46
2019-02-27T10:59:01.481Z,28.22
2019-02-27T11:04:10.456Z,26.35
2019-02-27T11:09:27.728Z,26.68
2019-02-27T11:14:39.516Z,26.92
2019-02-27T11:19:47.205Z,24.88
2019-02-27T11:24:56.134Z,23.88
2019-02-27T11:30:08.718Z,23.61
2019-02-27T11:35:22.128Z,23.90
2019-02-27T11:40:32.650Z,22.84
2019-02-27T11:45:46.218Z,22.07
2019-02-27T11:50:56.004Z,21.17
2019-02-27T11:56:07.788Z,20.08
2019-02-27T12:01:15.915Z,19.98
2019-02-27T12:06:29.924Z,20.02
2019-02-27T12:11:39.135Z,21.21
2019-02-27T12:16:51.770Z,20.03
2019-02-27T12:22:04.049Z,20.74
2019-02-27T12:27:24.466Z,20.64
2019-02-27T12:32:25.980Z,17.68
2019-02-27T12:37:34.762Z,18.88
2019-02-27T12:42:46.941Z,20.06
2019-02-27T12:48:02.181Z,19.07
2019-02-27T12:53:11.081Z,18.78
2019-02-27T12:58:24.385Z,17.57
2019-02-27T13:03:42.149Z,18.04
2019-02-27T13:08:55.878Z,17.43
2019-02-27T13:14:05.032Z,17.38
2019-02-27T13:19:18.637Z,17.25
2019-02-27T13:24:33.009Z,17.29
2019-02-27T13:29:44.587Z,16.77
2019-02-27T13:34:54.696Z,16.46
2019-02-27T13:40:10.871Z,15.29
2019-02-27T13:50:53.319Z,15.31
2019-02-27T13:56:01.402Z,15.35
2019-02-27T14:01:12.167Z,14.46
2019-02-27T14:06:23.437Z,15.68
2019-02-27T14:11:37.956Z,16.67
2019-02-27T14:16:49.271Z,17.48
2019-02-27T14:22:00.325Z,16.75
2019-02-27T14:27:14.592Z,17.10
2019-02-27T14:32:25.126Z,15.46
2019-02-27T14:37:40.456Z,14.77
2019-02-27T14:42:55.218Z,14.99
2019-02-27T14:48:05.735Z,15.25
2019-02-27T14:53:19.794Z,16.74
2019-02-27T14:58:27.692Z,18.10
2019-02-27T15:03:36.091Z,21.66
2019-02-27T15:08:55.238Z,23.62
2019-02-27T15:13:59.675Z,26.94
2019-02-27T15:19:06.332Z,28.64
2019-02-27T15:24:14.584Z,28.93
2019-02-27T15:29:26.575Z,29.50
2019-02-27T15:34:33.484Z,30.25
2019-02-27T15:39:47.847Z,29.70
2019-02-27T15:44:57.909Z,30.39
2019-02-27T15:50:26.948Z,30.23
2019-02-27T15:55:38.647Z,30.76
2019-02-27T16:00:53.447Z,30.75
2019-02-27T16:06:05.204Z,31.63
2019-02-27T16:11:10.300Z,31.70
2019-02-27T16:16:23.920Z,32.00
2019-02-27T16:21:37.486Z,32.75
2019-02-27T16:26:45.301Z,32.88
2019-02-27T16:31:56.325Z,33.51
2019-02-27T16:37:05.311Z,34.24
2019-02-27T16:42:13.411Z,34.77
2019-02-27T16:47:25.310Z,35.10
2019-02-27T16:52:39.190Z,35.10
2019-02-27T16:57:50.462Z,35.48
2019-02-27T17:02:58.595Z,36.41
2019-02-27T17:08:05.928Z,36.78
2019-02-27T17:13:18.340Z,37.10
2019-02-27T17:19:33.126Z,37.63
2019-02-27T17:24:48.486Z,37.70
2019-02-27T17:30:00.071Z,38.49
2019-02-27T17:35:06.952Z,38.90
2019-02-27T17:40:17.902Z,39.16
2019-02-27T17:45:25.724Z,40.19
2019-02-27T17:50:33.963Z,40.16
2019-02-27T17:55:42.599Z,40.40
2019-02-27T18:00:55.907Z,41.06
2019-02-27T18:06:06.786Z,41.20
2019-02-27T18:11:21.414Z,41.51
2019-02-27T18:16:31.539Z,42.46
2019-02-27T18:21:42.801Z,42.58
2019-02-27T18:26:58.149Z,43.67
2019-02-27T18:32:07.753Z,44.92
2019-02-27T18:37:22.278Z,45.10
2019-02-27T18:42:35.783Z,46.17
2019-02-27T18:47:47.466Z,47.09
2019-02-27T18:53:00.266Z,46.92
2019-02-27T18:58:14.765Z,47.59
2019-02-27T19:03:26.378Z,47.90
2019-02-27T19:08:35.848Z,48.41
2019-02-27T19:13:48.578Z,49.18
2019-02-27T19:19:00.410Z,49.25
2019-02-27T19:24:12.382Z,49.22
2019-02-27T19:29:26.615Z,49.66
2019-02-27T19:34:44.737Z,50.64
2019-02-27T19:39:53.363Z,51.45
2019-02-27T19:45:04.135Z,52.68
2019-02-27T19:50:11.237Z,51.74
2019-02-27T19:55:26.477Z,52.41
2019-02-27T20:00:34.198Z,52.36
2019-02-27T20:05:40.732Z,52.82
2019-02-27T20:10:49.858Z,52.97
2019-02-27T20:15:59.001Z,53.06
2019-02-27T20:21:10.511Z,54.52
2019-02-27T20:26:24.738Z,54.67
2019-02-27T20:31:32.855Z,55.29
2019-02-27T20:36:53.618Z,56.33
2019-02-27T20:42:02.711Z,56.91
2019-02-27T20:47:18.099Z,57.27
2019-02-27T20:52:30.056Z,57.40
2019-02-27T20:57:42.933Z,58.17
2019-02-27T21:02:53.504Z,58.97
2019-02-27T21:08:08.900Z,58.86
2019-02-27T21:13:18.958Z,59.93
2019-02-27T21:18:33.387Z,60.30
2019-02-27T21:23:43.168Z,60.51
2019-02-27T21:28:58.542Z,60.19
2019-02-27T21:34:02.256Z,60.98
2019-02-27T21:39:16.147Z,61.42
2019-02-27T21:44:29.223Z,61.33
2019-02-27T21:49:36.788Z,61.06
2019-02-27T21:54:48.688Z,61.03
2019-02-27T22:00:00.502Z,61.71
2019-02-27T22:05:18.406Z,61.78
2019-02-27T22:10:20.598Z,62.86
2019-02-27T22:15:31.416Z,62.54
2019-02-27T22:20:39.527Z,63.71
2019-02-27T22:25:55.471Z,64.28
2019-02-27T22:31:07.732Z,64.93
2019-02-27T22:36:16.790Z,64.35
2019-02-27T22:41:26.313Z,63.87
2019-02-27T22:46:36.397Z,63.69
2019-02-27T22:51:48.311Z,64.28
2019-02-27T22:56:55.850Z,64.40
2019-02-27T23:02:07.618Z,66.27
2019-02-27T23:07:20.512Z,66.20
2019-02-27T23:12:28.968Z,65.97
2019-02-27T23:17:38.283Z,65.61
2019-02-27T23:22:50.915Z,66.67
2019-02-27T23:28:02.019Z,66.62
2019-02-27T23:33:10.718Z,67.19
2019-02-27T23:38:21.774Z,67.75
2019-02-27T23:43:35.102Z,68.65
2019-02-27T23:48:42.964Z,68.72
2019-02-27T23:53:54.707Z,68.21
2019-02-27T23:59:02.573Z,68.38
